EHGR

Gilze-Rijen Air Base

Airport
ICAO code
EHGR
IATA Code
GLZ
Summary
ICAO Region
EUR
ICAO Territory
Location

Gilze en Rijen, Noord-Brabant

Serving
Gilze en Rijen
Elevation
49 ft
Coordinates
51° 34' 3" N , 4° 55' 55" E
KCC
Cfb
Metar
Observation
EHGR 081555Z AUTO 02011KT 330V080 9999 BKN048 OVC053 24/11 Q1023 BLU
Station
Gilze-Rijen
Date/Time
2022-08-08 15:55:00
Wind direction
20°
Wind speed
11 kts
Lowest cloud amount
broken clouds
Temperature
24°C
Dew point
11°C
Humidity
44%
QNH
1023 hPa
Weather condition
n/a

Gilze-Rijen Air Base is a military airbase in the Netherlands located between the cities of Breda and Tilburg, in the Noord-Brabant province. It is mainly, but not exclusively used as a base for attack helicopters.

Climatology

Temperate Marine climate/Oceanic climate (Köppen climate classification Cfb). Moderately cool summer and comparatively warm winter with a temperature range of only 14°C. Prevailing south-westerly winds from the Atlantic Ocean.

Runways

Designator Length Width Surface Rops
2/20 1996 30 ASP No/No
10/28 2779 45 ASP No/No

Airport map

Aerial View

SKYbrary Partners:

Safety knowledge contributed by: